sensor_id;sensor_type;location;lat;lon;timestamp;P1;durP1;ratioP1;P2;durP2;ratioP2
20040;SDS011;10181;48.072;9.884;2023-01-19T00:01:26;5.53;;;5.03;;
20040;SDS011;10181;48.072;9.884;2023-01-19T00:03:52;4.80;;;4.40;;
20040;SDS011;10181;48.072;9.884;2023-01-19T00:06:17;5.73;;;4.83;;
20040;SDS011;10181;48.072;9.884;2023-01-19T00:08:43;7.13;;;5.80;;
20040;SDS011;10181;48.072;9.884;2023-01-19T00:11:10;6.20;;;4.93;;
20040;SDS011;10181;48.072;9.884;2023-01-19T00:13:37;5.60;;;5.20;;
20040;SDS011;10181;48.072;9.884;2023-01-19T00:16:03;6.37;;;5.70;;
20040;SDS011;10181;48.072;9.884;2023-01-19T00:18:29;6.03;;;5.63;;
20040;SDS011;10181;48.072;9.884;2023-01-19T00:20:55;6.53;;;5.93;;
20040;SDS011;10181;48.072;9.884;2023-01-19T00:23:21;6.13;;;4.93;;
20040;SDS011;10181;48.072;9.884;2023-01-19T00:25:46;5.30;;;4.80;;
20040;SDS011;10181;48.072;9.884;2023-01-19T00:28:14;7.83;;;6.07;;
20040;SDS011;10181;48.072;9.884;2023-01-19T00:30:42;8.30;;;5.33;;
20040;SDS011;10181;48.072;9.884;2023-01-19T00:33:08;6.87;;;6.23;;
20040;SDS011;10181;48.072;9.884;2023-01-19T00:35:35;5.50;;;5.10;;
20040;SDS011;10181;48.072;9.884;2023-01-19T00:38:01;6.07;;;5.43;;
20040;SDS011;10181;48.072;9.884;2023-01-19T00:40:27;5.70;;;5.20;;
20040;SDS011;10181;48.072;9.884;2023-01-19T00:42:53;5.30;;;4.90;;
20040;SDS011;10181;48.072;9.884;2023-01-19T00:45:20;9.77;;;5.27;;
20040;SDS011;10181;48.072;9.884;2023-01-19T00:47:47;5.17;;;4.60;;
20040;SDS011;10181;48.072;9.884;2023-01-19T00:50:14;5.07;;;4.57;;
20040;SDS011;10181;48.072;9.884;2023-01-19T00:52:41;5.40;;;5.00;;
20040;SDS011;10181;48.072;9.884;2023-01-19T00:55:09;7.53;;;5.87;;
20040;SDS011;10181;48.072;9.884;2023-01-19T00:57:37;7.80;;;6.00;;
20040;SDS011;10181;48.072;9.884;2023-01-19T01:00:04;5.37;;;4.87;;
20040;SDS011;10181;48.072;9.884;2023-01-19T01:02:31;5.63;;;5.13;;
20040;SDS011;10181;48.072;9.884;2023-01-19T01:04:57;7.17;;;5.60;;
20040;SDS011;10181;48.072;9.884;2023-01-19T01:07:26;6.37;;;5.50;;
20040;SDS011;10181;48.072;9.884;2023-01-19T01:09:52;6.40;;;5.30;;
20040;SDS011;10181;48.072;9.884;2023-01-19T01:12:18;6.37;;;5.87;;
20040;SDS011;10181;48.072;9.884;2023-01-19T01:14:43;5.10;;;4.57;;
20040;SDS011;10181;48.072;9.884;2023-01-19T01:17:09;6.40;;;5.40;;
20040;SDS011;10181;48.072;9.884;2023-01-19T01:19:41;8.00;;;4.93;;
20040;SDS011;10181;48.072;9.884;2023-01-19T01:22:07;5.37;;;4.90;;
20040;SDS011;10181;48.072;9.884;2023-01-19T01:24:34;8.83;;;6.60;;
20040;SDS011;10181;48.072;9.884;2023-01-19T01:27:00;6.37;;;5.77;;
20040;SDS011;10181;48.072;9.884;2023-01-19T01:29:25;6.90;;;6.30;;
20040;SDS011;10181;48.072;9.884;2023-01-19T01:31:51;7.20;;;5.43;;
20040;SDS011;10181;48.072;9.884;2023-01-19T01:34:17;6.60;;;5.20;;
20040;SDS011;10181;48.072;9.884;2023-01-19T01:36:43;7.97;;;5.90;;
20040;SDS011;10181;48.072;9.884;2023-01-19T01:39:08;6.30;;;5.00;;
20040;SDS011;10181;48.072;9.884;2023-01-19T01:41:34;6.13;;;5.13;;
20040;SDS011;10181;48.072;9.884;2023-01-19T01:44:00;6.67;;;5.07;;
20040;SDS011;10181;48.072;9.884;2023-01-19T01:46:30;7.87;;;5.20;;
20040;SDS011;10181;48.072;9.884;2023-01-19T01:49:03;5.60;;;5.20;;
20040;SDS011;10181;48.072;9.884;2023-01-19T01:51:37;6.67;;;5.80;;
20040;SDS011;10181;48.072;9.884;2023-01-19T01:54:14;5.50;;;5.07;;
20040;SDS011;10181;48.072;9.884;2023-01-19T01:56:50;5.97;;;5.23;;
20040;SDS011;10181;48.072;9.884;2023-01-19T02:02:18;4.43;;;4.03;;
20040;SDS011;10181;48.072;9.884;2023-01-19T02:05:10;7.67;;;5.87;;
20040;SDS011;10181;48.072;9.884;2023-01-19T02:10:30;6.67;;;5.47;;
20040;SDS011;10181;48.072;9.884;2023-01-19T02:13:16;5.03;;;4.53;;
20040;SDS011;10181;48.072;9.884;2023-01-19T02:15:45;4.73;;;4.40;;
20040;SDS011;10181;48.072;9.884;2023-01-19T02:18:16;7.33;;;6.10;;
20040;SDS011;10181;48.072;9.884;2023-01-19T02:20:49;5.93;;;5.37;;
20040;SDS011;10181;48.072;9.884;2023-01-19T02:23:26;5.03;;;4.63;;
20040;SDS011;10181;48.072;9.884;2023-01-19T02:26:05;5.23;;;4.73;;
20040;SDS011;10181;48.072;9.884;2023-01-19T02:28:33;5.23;;;4.57;;
20040;SDS011;10181;48.072;9.884;2023-01-19T02:31:02;5.20;;;4.33;;
20040;SDS011;10181;48.072;9.884;2023-01-19T02:33:29;4.77;;;4.30;;
20040;SDS011;10181;48.072;9.884;2023-01-19T02:35:54;6.07;;;5.57;;
20040;SDS011;10181;48.072;9.884;2023-01-19T02:38:21;5.07;;;4.57;;
20040;SDS011;10181;48.072;9.884;2023-01-19T02:40:50;8.17;;;4.73;;
20040;SDS011;10181;48.072;9.884;2023-01-19T02:43:17;7.83;;;5.43;;
20040;SDS011;10181;48.072;9.884;2023-01-19T02:45:44;5.40;;;4.90;;
20040;SDS011;10181;48.072;9.884;2023-01-19T02:48:10;5.77;;;5.17;;
20040;SDS011;10181;48.072;9.884;2023-01-19T02:50:37;5.73;;;4.90;;
20040;SDS011;10181;48.072;9.884;2023-01-19T02:55:52;5.37;;;4.87;;
20040;SDS011;10181;48.072;9.884;2023-01-19T02:58:27;4.73;;;4.23;;
20040;SDS011;10181;48.072;9.884;2023-01-19T03:01:18;5.43;;;4.93;;
20040;SDS011;10181;48.072;9.884;2023-01-19T03:04:10;6.53;;;5.20;;
20040;SDS011;10181;48.072;9.884;2023-01-19T03:11:49;12.93;;;12.03;;
20040;SDS011;10181;48.072;9.884;2023-01-19T03:14:30;11.53;;;10.83;;
20040;SDS011;10181;48.072;9.884;2023-01-19T03:17:01;9.97;;;9.27;;
20040;SDS011;10181;48.072;9.884;2023-01-19T03:19:34;7.67;;;6.97;;
20040;SDS011;10181;48.072;9.884;2023-01-19T03:22:04;9.17;;;8.47;;
20040;SDS011;10181;48.072;9.884;2023-01-19T03:24:39;6.27;;;5.73;;
20040;SDS011;10181;48.072;9.884;2023-01-19T03:27:10;6.67;;;5.63;;
20040;SDS011;10181;48.072;9.884;2023-01-19T03:29:51;7.67;;;5.40;;
20040;SDS011;10181;48.072;9.884;2023-01-19T03:32:22;7.17;;;6.57;;
20040;SDS011;10181;48.072;9.884;2023-01-19T03:34:53;8.00;;;6.43;;
20040;SDS011;10181;48.072;9.884;2023-01-19T03:37:20;6.67;;;6.07;;
20040;SDS011;10181;48.072;9.884;2023-01-19T03:39:48;7.87;;;5.57;;
20040;SDS011;10181;48.072;9.884;2023-01-19T03:42:14;7.63;;;5.60;;
20040;SDS011;10181;48.072;9.884;2023-01-19T03:44:41;9.33;;;6.20;;
20040;SDS011;10181;48.072;9.884;2023-01-19T03:47:09;6.57;;;6.07;;
20040;SDS011;10181;48.072;9.884;2023-01-19T03:49:38;8.73;;;6.73;;
20040;SDS011;10181;48.072;9.884;2023-01-19T03:52:07;8.07;;;7.37;;
20040;SDS011;10181;48.072;9.884;2023-01-19T03:54:34;8.27;;;7.60;;
20040;SDS011;10181;48.072;9.884;2023-01-19T03:57:00;9.47;;;8.60;;
20040;SDS011;10181;48.072;9.884;2023-01-19T03:59:25;19.53;;;18.17;;
20040;SDS011;10181;48.072;9.884;2023-01-19T04:01:51;25.53;;;23.70;;
20040;SDS011;10181;48.072;9.884;2023-01-19T04:04:16;25.13;;;23.67;;
20040;SDS011;10181;48.072;9.884;2023-01-19T04:06:42;33.37;;;31.47;;
20040;SDS011;10181;48.072;9.884;2023-01-19T04:09:08;40.67;;;38.47;;
20040;SDS011;10181;48.072;9.884;2023-01-19T04:11:33;46.73;;;43.90;;
20040;SDS011;10181;48.072;9.884;2023-01-19T04:13:59;51.23;;;48.57;;
20040;SDS011;10181;48.072;9.884;2023-01-19T04:16:25;53.53;;;51.03;;
20040;SDS011;10181;48.072;9.884;2023-01-19T04:18:51;57.10;;;54.33;;
20040;SDS011;10181;48.072;9.884;2023-01-19T04:21:16;52.73;;;50.10;;
20040;SDS011;10181;48.072;9.884;2023-01-19T04:23:44;47.70;;;45.33;;
20040;SDS011;10181;48.072;9.884;2023-01-19T04:26:10;50.43;;;47.80;;
20040;SDS011;10181;48.072;9.884;2023-01-19T04:28:36;47.90;;;45.23;;
20040;SDS011;10181;48.072;9.884;2023-01-19T04:31:02;47.87;;;45.37;;
20040;SDS011;10181;48.072;9.884;2023-01-19T04:33:31;46.23;;;43.83;;
20040;SDS011;10181;48.072;9.884;2023-01-19T04:35:57;45.47;;;43.20;;
20040;SDS011;10181;48.072;9.884;2023-01-19T04:38:23;45.37;;;42.77;;
20040;SDS011;10181;48.072;9.884;2023-01-19T04:40:50;44.70;;;42.47;;
20040;SDS011;10181;48.072;9.884;2023-01-19T04:43:17;48.10;;;45.83;;
20040;SDS011;10181;48.072;9.884;2023-01-19T04:45:44;41.93;;;39.73;;
20040;SDS011;10181;48.072;9.884;2023-01-19T04:48:10;41.03;;;38.63;;
20040;SDS011;10181;48.072;9.884;2023-01-19T04:50:36;51.03;;;48.33;;
20040;SDS011;10181;48.072;9.884;2023-01-19T04:53:02;46.43;;;44.03;;
20040;SDS011;10181;48.072;9.884;2023-01-19T04:55:28;40.90;;;38.70;;
20040;SDS011;10181;48.072;9.884;2023-01-19T04:57:54;37.80;;;35.23;;
20040;SDS011;10181;48.072;9.884;2023-01-19T05:00:20;33.83;;;32.00;;
20040;SDS011;10181;48.072;9.884;2023-01-19T05:02:46;23.23;;;21.73;;
20040;SDS011;10181;48.072;9.884;2023-01-19T05:05:12;22.63;;;21.13;;
20040;SDS011;10181;48.072;9.884;2023-01-19T05:07:38;20.57;;;19.07;;
20040;SDS011;10181;48.072;9.884;2023-01-19T05:10:04;19.17;;;17.77;;
20040;SDS011;10181;48.072;9.884;2023-01-19T05:12:31;25.63;;;23.80;;
20040;SDS011;10181;48.072;9.884;2023-01-19T05:14:57;30.50;;;28.60;;
20040;SDS011;10181;48.072;9.884;2023-01-19T05:17:22;34.33;;;32.07;;
20040;SDS011;10181;48.072;9.884;2023-01-19T05:19:48;33.30;;;30.90;;
20040;SDS011;10181;48.072;9.884;2023-01-19T05:22:14;39.10;;;36.70;;
20040;SDS011;10181;48.072;9.884;2023-01-19T05:24:40;42.80;;;39.27;;
20040;SDS011;10181;48.072;9.884;2023-01-19T05:27:06;46.63;;;42.67;;
20040;SDS011;10181;48.072;9.884;2023-01-19T05:29:32;53.00;;;49.27;;
20040;SDS011;10181;48.072;9.884;2023-01-19T05:31:58;38.00;;;35.40;;
20040;SDS011;10181;48.072;9.884;2023-01-19T05:34:24;33.20;;;30.97;;
20040;SDS011;10181;48.072;9.884;2023-01-19T05:36:49;35.27;;;33.07;;
20040;SDS011;10181;48.072;9.884;2023-01-19T05:39:15;37.93;;;35.57;;
20040;SDS011;10181;48.072;9.884;2023-01-19T05:41:41;40.37;;;38.00;;
20040;SDS011;10181;48.072;9.884;2023-01-19T05:44:09;40.93;;;38.37;;
20040;SDS011;10181;48.072;9.884;2023-01-19T05:46:35;45.37;;;42.77;;
20040;SDS011;10181;48.072;9.884;2023-01-19T05:49:01;33.77;;;31.53;;
20040;SDS011;10181;48.072;9.884;2023-01-19T05:51:28;33.63;;;31.17;;
20040;SDS011;10181;48.072;9.884;2023-01-19T05:53:59;31.50;;;29.27;;
20040;SDS011;10181;48.072;9.884;2023-01-19T05:56:25;30.87;;;28.63;;
20040;SDS011;10181;48.072;9.884;2023-01-19T05:58:51;24.63;;;22.53;;
20040;SDS011;10181;48.072;9.884;2023-01-19T06:01:16;19.63;;;17.83;;
20040;SDS011;10181;48.072;9.884;2023-01-19T06:03:42;17.13;;;13.03;;
20040;SDS011;10181;48.072;9.884;2023-01-19T06:06:08;17.17;;;15.10;;
20040;SDS011;10181;48.072;9.884;2023-01-19T06:08:34;17.40;;;14.13;;
20040;SDS011;10181;48.072;9.884;2023-01-19T06:11:00;16.00;;;13.37;;
20040;SDS011;10181;48.072;9.884;2023-01-19T06:13:25;13.80;;;12.33;;
20040;SDS011;10181;48.072;9.884;2023-01-19T06:15:55;17.33;;;15.60;;
20040;SDS011;10181;48.072;9.884;2023-01-19T06:18:21;16.40;;;14.80;;
20040;SDS011;10181;48.072;9.884;2023-01-19T06:20:49;16.67;;;15.03;;
20040;SDS011;10181;48.072;9.884;2023-01-19T06:23:16;15.37;;;13.87;;
20040;SDS011;10181;48.072;9.884;2023-01-19T06:25:41;16.30;;;14.83;;
20040;SDS011;10181;48.072;9.884;2023-01-19T06:28:07;18.23;;;15.73;;
20040;SDS011;10181;48.072;9.884;2023-01-19T06:30:32;16.73;;;15.23;;
20040;SDS011;10181;48.072;9.884;2023-01-19T06:32:58;17.10;;;15.60;;
20040;SDS011;10181;48.072;9.884;2023-01-19T06:35:23;17.47;;;15.87;;
20040;SDS011;10181;48.072;9.884;2023-01-19T06:37:49;18.17;;;16.53;;
20040;SDS011;10181;48.072;9.884;2023-01-19T06:40:16;16.03;;;14.43;;
20040;SDS011;10181;48.072;9.884;2023-01-19T06:42:41;18.07;;;16.37;;
20040;SDS011;10181;48.072;9.884;2023-01-19T06:45:07;15.80;;;14.30;;
20040;SDS011;10181;48.072;9.884;2023-01-19T06:47:34;16.80;;;15.00;;
20040;SDS011;10181;48.072;9.884;2023-01-19T06:49:59;14.90;;;13.67;;
20040;SDS011;10181;48.072;9.884;2023-01-19T06:52:26;12.40;;;11.20;;
20040;SDS011;10181;48.072;9.884;2023-01-19T06:54:52;12.30;;;10.97;;
20040;SDS011;10181;48.072;9.884;2023-01-19T06:57:18;30.17;;;20.43;;
20040;SDS011;10181;48.072;9.884;2023-01-19T06:59:43;112.17;;;53.63;;
20040;SDS011;10181;48.072;9.884;2023-01-19T07:02:09;16.60;;;14.80;;
20040;SDS011;10181;48.072;9.884;2023-01-19T07:04:35;18.53;;;16.83;;
20040;SDS011;10181;48.072;9.884;2023-01-19T07:07:01;19.87;;;17.33;;
20040;SDS011;10181;48.072;9.884;2023-01-19T07:09:26;19.50;;;17.53;;
20040;SDS011;10181;48.072;9.884;2023-01-19T07:11:52;23.17;;;20.93;;
20040;SDS011;10181;48.072;9.884;2023-01-19T07:14:18;23.73;;;21.40;;
20040;SDS011;10181;48.072;9.884;2023-01-19T07:16:44;17.53;;;14.93;;
20040;SDS011;10181;48.072;9.884;2023-01-19T07:19:10;17.93;;;16.20;;
20040;SDS011;10181;48.072;9.884;2023-01-19T07:21:38;20.07;;;18.07;;
20040;SDS011;10181;48.072;9.884;2023-01-19T07:24:03;18.80;;;17.03;;
20040;SDS011;10181;48.072;9.884;2023-01-19T07:26:30;19.23;;;15.27;;
20040;SDS011;10181;48.072;9.884;2023-01-19T07:28:55;16.27;;;14.77;;
20040;SDS011;10181;48.072;9.884;2023-01-19T07:31:21;13.10;;;11.80;;
20040;SDS011;10181;48.072;9.884;2023-01-19T07:33:46;13.90;;;12.50;;
20040;SDS011;10181;48.072;9.884;2023-01-19T07:36:12;15.27;;;13.73;;
20040;SDS011;10181;48.072;9.884;2023-01-19T07:38:38;13.17;;;10.93;;
20040;SDS011;10181;48.072;9.884;2023-01-19T07:41:05;15.17;;;11.27;;
20040;SDS011;10181;48.072;9.884;2023-01-19T07:43:31;13.83;;;11.70;;
20040;SDS011;10181;48.072;9.884;2023-01-19T07:45:58;13.93;;;12.40;;
20040;SDS011;10181;48.072;9.884;2023-01-19T07:48:25;17.77;;;13.10;;
20040;SDS011;10181;48.072;9.884;2023-01-19T07:50:51;13.87;;;10.47;;
20040;SDS011;10181;48.072;9.884;2023-01-19T07:53:17;14.33;;;12.97;;
20040;SDS011;10181;48.072;9.884;2023-01-19T07:55:43;13.57;;;10.60;;
20040;SDS011;10181;48.072;9.884;2023-01-19T07:58:09;11.30;;;10.13;;
20040;SDS011;10181;48.072;9.884;2023-01-19T08:00:35;15.47;;;12.27;;
20040;SDS011;10181;48.072;9.884;2023-01-19T08:03:02;10.97;;;9.80;;
20040;SDS011;10181;48.072;9.884;2023-01-19T08:05:29;15.97;;;10.40;;
20040;SDS011;10181;48.072;9.884;2023-01-19T08:07:55;13.27;;;11.50;;
20040;SDS011;10181;48.072;9.884;2023-01-19T08:10:22;16.23;;;11.33;;
20040;SDS011;10181;48.072;9.884;2023-01-19T08:12:52;13.73;;;10.53;;
20040;SDS011;10181;48.072;9.884;2023-01-19T08:15:19;11.63;;;10.53;;
20040;SDS011;10181;48.072;9.884;2023-01-19T08:17:53;16.43;;;11.83;;
20040;SDS011;10181;48.072;9.884;2023-01-19T08:20:20;11.60;;;10.03;;
20040;SDS011;10181;48.072;9.884;2023-01-19T08:22:47;12.53;;;10.90;;
20040;SDS011;10181;48.072;9.884;2023-01-19T08:25:14;16.13;;;11.93;;
20040;SDS011;10181;48.072;9.884;2023-01-19T08:27:39;11.17;;;9.67;;
20040;SDS011;10181;48.072;9.884;2023-01-19T08:30:05;14.37;;;10.43;;
20040;SDS011;10181;48.072;9.884;2023-01-19T08:32:31;14.37;;;12.83;;
20040;SDS011;10181;48.072;9.884;2023-01-19T08:34:57;12.40;;;11.10;;
20040;SDS011;10181;48.072;9.884;2023-01-19T08:37:22;15.30;;;9.53;;
20040;SDS011;10181;48.072;9.884;2023-01-19T08:39:48;15.03;;;10.50;;
20040;SDS011;10181;48.072;9.884;2023-01-19T08:42:14;16.40;;;10.97;;
20040;SDS011;10181;48.072;9.884;2023-01-19T08:44:40;14.77;;;11.83;;
20040;SDS011;10181;48.072;9.884;2023-01-19T08:47:05;13.53;;;10.57;;
20040;SDS011;10181;48.072;9.884;2023-01-19T08:49:32;15.00;;;10.77;;
20040;SDS011;10181;48.072;9.884;2023-01-19T08:51:57;10.37;;;9.27;;
20040;SDS011;10181;48.072;9.884;2023-01-19T08:54:23;11.53;;;9.63;;
20040;SDS011;10181;48.072;9.884;2023-01-19T08:56:49;11.27;;;9.07;;
20040;SDS011;10181;48.072;9.884;2023-01-19T08:59:14;10.90;;;9.80;;
20040;SDS011;10181;48.072;9.884;2023-01-19T09:01:40;10.63;;;9.00;;
20040;SDS011;10181;48.072;9.884;2023-01-19T09:04:06;18.37;;;11.83;;
20040;SDS011;10181;48.072;9.884;2023-01-19T09:06:32;11.90;;;10.70;;
20040;SDS011;10181;48.072;9.884;2023-01-19T09:08:58;14.50;;;12.40;;
20040;SDS011;10181;48.072;9.884;2023-01-19T09:11:23;12.10;;;10.70;;
20040;SDS011;10181;48.072;9.884;2023-01-19T09:13:49;16.13;;;12.80;;
20040;SDS011;10181;48.072;9.884;2023-01-19T09:16:15;14.03;;;11.73;;
20040;SDS011;10181;48.072;9.884;2023-01-19T09:18:40;14.50;;;13.43;;
20040;SDS011;10181;48.072;9.884;2023-01-19T09:21:07;20.10;;;18.50;;
20040;SDS011;10181;48.072;9.884;2023-01-19T09:23:33;22.47;;;20.70;;
20040;SDS011;10181;48.072;9.884;2023-01-19T09:26:00;15.90;;;14.43;;
20040;SDS011;10181;48.072;9.884;2023-01-19T09:28:27;18.50;;;16.80;;
20040;SDS011;10181;48.072;9.884;2023-01-19T09:30:54;20.00;;;18.53;;
20040;SDS011;10181;48.072;9.884;2023-01-19T09:33:20;13.93;;;12.63;;
20040;SDS011;10181;48.072;9.884;2023-01-19T09:35:46;18.43;;;17.17;;
20040;SDS011;10181;48.072;9.884;2023-01-19T09:38:13;20.23;;;18.63;;
20040;SDS011;10181;48.072;9.884;2023-01-19T09:40:41;12.80;;;11.77;;
20040;SDS011;10181;48.072;9.884;2023-01-19T09:46:00;16.73;;;10.77;;
20040;SDS011;10181;48.072;9.884;2023-01-19T09:51:05;12.90;;;11.60;;
20040;SDS011;10181;48.072;9.884;2023-01-19T09:53:45;15.63;;;14.20;;
20040;SDS011;10181;48.072;9.884;2023-01-19T09:56:21;16.07;;;14.70;;
20040;SDS011;10181;48.072;9.884;2023-01-19T09:58:47;18.57;;;17.07;;
20040;SDS011;10181;48.072;9.884;2023-01-19T10:04:07;11.50;;;10.37;;
20040;SDS011;10181;48.072;9.884;2023-01-19T10:06:57;13.10;;;11.03;;
20040;SDS011;10181;48.072;9.884;2023-01-19T10:09:35;18.03;;;13.43;;
20040;SDS011;10181;48.072;9.884;2023-01-19T10:12:13;13.63;;;11.10;;
20040;SDS011;10181;48.072;9.884;2023-01-19T10:20:30;17.33;;;15.80;;
20040;SDS011;10181;48.072;9.884;2023-01-19T10:23:00;18.23;;;16.90;;
20040;SDS011;10181;48.072;9.884;2023-01-19T10:25:29;17.77;;;16.40;;
20040;SDS011;10181;48.072;9.884;2023-01-19T10:27:56;17.33;;;16.10;;
20040;SDS011;10181;48.072;9.884;2023-01-19T10:30:25;27.07;;;25.23;;
20040;SDS011;10181;48.072;9.884;2023-01-19T10:32:53;24.23;;;22.37;;
20040;SDS011;10181;48.072;9.884;2023-01-19T10:35:20;30.97;;;28.87;;
20040;SDS011;10181;48.072;9.884;2023-01-19T10:37:49;27.93;;;26.23;;
20040;SDS011;10181;48.072;9.884;2023-01-19T10:40:32;28.83;;;27.03;;
20040;SDS011;10181;48.072;9.884;2023-01-19T10:42:59;24.57;;;22.90;;
20040;SDS011;10181;48.072;9.884;2023-01-19T10:45:29;21.73;;;19.83;;
20040;SDS011;10181;48.072;9.884;2023-01-19T10:47:59;20.10;;;18.53;;
20040;SDS011;10181;48.072;9.884;2023-01-19T10:50:31;15.70;;;14.50;;
20040;SDS011;10181;48.072;9.884;2023-01-19T10:53:03;10.97;;;10.07;;
20040;SDS011;10181;48.072;9.884;2023-01-19T10:55:34;11.07;;;8.77;;
20040;SDS011;10181;48.072;9.884;2023-01-19T10:58:02;9.90;;;8.00;;
20040;SDS011;10181;48.072;9.884;2023-01-19T11:00:41;8.10;;;7.27;;
20040;SDS011;10181;48.072;9.884;2023-01-19T11:08:43;9.23;;;5.80;;
20040;SDS011;10181;48.072;9.884;2023-01-19T11:11:30;6.60;;;5.87;;
20040;SDS011;10181;48.072;9.884;2023-01-19T11:14:11;7.73;;;6.93;;
20040;SDS011;10181;48.072;9.884;2023-01-19T11:16:44;8.90;;;7.97;;
20040;SDS011;10181;48.072;9.884;2023-01-19T11:19:16;8.70;;;8.10;;
20040;SDS011;10181;48.072;9.884;2023-01-19T11:21:44;8.47;;;7.67;;
20040;SDS011;10181;48.072;9.884;2023-01-19T11:24:10;7.47;;;6.47;;
20040;SDS011;10181;48.072;9.884;2023-01-19T11:26:43;5.57;;;4.90;;
20040;SDS011;10181;48.072;9.884;2023-01-19T11:29:15;7.10;;;4.67;;
20040;SDS011;10181;48.072;9.884;2023-01-19T11:31:44;8.10;;;7.40;;
20040;SDS011;10181;48.072;9.884;2023-01-19T11:34:31;38.37;;;36.50;;
20040;SDS011;10181;48.072;9.884;2023-01-19T11:39:27;24.00;;;22.83;;
20040;SDS011;10181;48.072;9.884;2023-01-19T11:41:55;8.93;;;8.30;;
20040;SDS011;10181;48.072;9.884;2023-01-19T11:44:29;9.43;;;8.73;;
20040;SDS011;10181;48.072;9.884;2023-01-19T11:46:59;8.50;;;8.00;;
20040;SDS011;10181;48.072;9.884;2023-01-19T11:49:51;11.63;;;10.93;;
20040;SDS011;10181;48.072;9.884;2023-01-19T11:54:59;18.03;;;16.77;;
20040;SDS011;10181;48.072;9.884;2023-01-19T11:57:47;40.30;;;38.50;;
20040;SDS011;10181;48.072;9.884;2023-01-19T12:02:49;48.60;;;46.43;;
20040;SDS011;10181;48.072;9.884;2023-01-19T12:05:19;71.53;;;68.20;;
20040;SDS011;10181;48.072;9.884;2023-01-19T12:07:49;29.90;;;28.53;;
20040;SDS011;10181;48.072;9.884;2023-01-19T12:10:22;31.97;;;30.47;;
20040;SDS011;10181;48.072;9.884;2023-01-19T12:12:51;31.83;;;30.13;;
20040;SDS011;10181;48.072;9.884;2023-01-19T12:18:06;36.50;;;34.67;;
20040;SDS011;10181;48.072;9.884;2023-01-19T12:20:43;51.70;;;49.37;;
20040;SDS011;10181;48.072;9.884;2023-01-19T12:23:21;22.23;;;21.07;;
20040;SDS011;10181;48.072;9.884;2023-01-19T12:26:05;7.90;;;7.40;;
20040;SDS011;10181;48.072;9.884;2023-01-19T12:28:52;7.40;;;6.80;;
20040;SDS011;10181;48.072;9.884;2023-01-19T12:31:25;8.50;;;7.90;;
20040;SDS011;10181;48.072;9.884;2023-01-19T12:33:51;4.67;;;4.13;;
20040;SDS011;10181;48.072;9.884;2023-01-19T12:39:01;10.50;;;9.90;;
20040;SDS011;10181;48.072;9.884;2023-01-19T12:41:33;8.83;;;8.33;;
20040;SDS011;10181;48.072;9.884;2023-01-19T12:46:56;8.47;;;7.87;;
20040;SDS011;10181;48.072;9.884;2023-01-19T12:49:41;8.57;;;7.90;;
20040;SDS011;10181;48.072;9.884;2023-01-19T12:54:57;5.73;;;5.30;;
20040;SDS011;10181;48.072;9.884;2023-01-19T12:57:31;6.90;;;6.43;;
20040;SDS011;10181;48.072;9.884;2023-01-19T13:05:21;10.57;;;9.67;;
20040;SDS011;10181;48.072;9.884;2023-01-19T13:13:29;9.27;;;8.67;;
20040;SDS011;10181;48.072;9.884;2023-01-19T13:18:50;6.43;;;5.83;;
20040;SDS011;10181;48.072;9.884;2023-01-19T13:21:41;8.47;;;7.77;;
20040;SDS011;10181;48.072;9.884;2023-01-19T13:24:10;8.27;;;7.77;;
20040;SDS011;10181;48.072;9.884;2023-01-19T13:31:57;4.70;;;4.40;;
20040;SDS011;10181;48.072;9.884;2023-01-19T13:34:29;8.60;;;7.90;;
20040;SDS011;10181;48.072;9.884;2023-01-19T13:37:00;8.27;;;7.77;;
20040;SDS011;10181;48.072;9.884;2023-01-19T13:39:29;8.30;;;7.90;;
20040;SDS011;10181;48.072;9.884;2023-01-19T13:42:01;4.63;;;4.40;;
20040;SDS011;10181;48.072;9.884;2023-01-19T13:44:31;5.20;;;4.90;;
20040;SDS011;10181;48.072;9.884;2023-01-19T13:47:03;5.97;;;5.57;;
20040;SDS011;10181;48.072;9.884;2023-01-19T13:49:35;7.37;;;6.87;;
20040;SDS011;10181;48.072;9.884;2023-01-19T13:52:20;7.87;;;7.37;;
20040;SDS011;10181;48.072;9.884;2023-01-19T13:54:51;7.60;;;7.10;;
20040;SDS011;10181;48.072;9.884;2023-01-19T13:57:26;7.33;;;6.97;;
20040;SDS011;10181;48.072;9.884;2023-01-19T14:02:35;5.10;;;4.80;;
20040;SDS011;10181;48.072;9.884;2023-01-19T14:05:12;6.50;;;6.00;;
20040;SDS011;10181;48.072;9.884;2023-01-19T14:07:39;6.63;;;6.13;;
20040;SDS011;10181;48.072;9.884;2023-01-19T14:10:05;7.60;;;7.20;;
20040;SDS011;10181;48.072;9.884;2023-01-19T14:12:37;4.00;;;3.80;;
20040;SDS011;10181;48.072;9.884;2023-01-19T14:15:03;8.83;;;4.63;;
20040;SDS011;10181;48.072;9.884;2023-01-19T14:17:35;6.07;;;5.67;;
20040;SDS011;10181;48.072;9.884;2023-01-19T14:20:01;8.87;;;8.07;;
20040;SDS011;10181;48.072;9.884;2023-01-19T14:22:37;7.20;;;6.70;;
20040;SDS011;10181;48.072;9.884;2023-01-19T14:30:55;5.10;;;4.77;;
20040;SDS011;10181;48.072;9.884;2023-01-19T14:33:35;5.13;;;4.47;;
20040;SDS011;10181;48.072;9.884;2023-01-19T14:38:42;5.60;;;5.20;;
20040;SDS011;10181;48.072;9.884;2023-01-19T14:41:11;7.27;;;6.77;;
20040;SDS011;10181;48.072;9.884;2023-01-19T14:43:46;5.60;;;5.30;;
20040;SDS011;10181;48.072;9.884;2023-01-19T14:46:18;6.70;;;6.23;;
20040;SDS011;10181;48.072;9.884;2023-01-19T14:48:45;5.13;;;4.73;;
20040;SDS011;10181;48.072;9.884;2023-01-19T14:51:14;4.60;;;4.20;;
20040;SDS011;10181;48.072;9.884;2023-01-19T14:53:45;4.87;;;4.47;;
20040;SDS011;10181;48.072;9.884;2023-01-19T14:56:22;5.90;;;5.57;;
20040;SDS011;10181;48.072;9.884;2023-01-19T14:58:54;5.90;;;5.40;;
20040;SDS011;10181;48.072;9.884;2023-01-19T15:01:21;5.27;;;4.87;;
20040;SDS011;10181;48.072;9.884;2023-01-19T15:03:47;4.27;;;3.97;;
20040;SDS011;10181;48.072;9.884;2023-01-19T15:06:17;5.30;;;4.43;;
20040;SDS011;10181;48.072;9.884;2023-01-19T15:08:44;5.90;;;5.40;;
20040;SDS011;10181;48.072;9.884;2023-01-19T15:11:21;5.63;;;4.97;;
20040;SDS011;10181;48.072;9.884;2023-01-19T15:13:49;5.00;;;3.73;;
20040;SDS011;10181;48.072;9.884;2023-01-19T15:16:15;4.23;;;3.93;;
20040;SDS011;10181;48.072;9.884;2023-01-19T15:18:41;4.80;;;4.40;;
20040;SDS011;10181;48.072;9.884;2023-01-19T15:21:10;5.63;;;4.77;;
20040;SDS011;10181;48.072;9.884;2023-01-19T15:23:43;4.77;;;4.40;;
20040;SDS011;10181;48.072;9.884;2023-01-19T15:26:09;5.93;;;5.53;;
20040;SDS011;10181;48.072;9.884;2023-01-19T15:28:40;6.27;;;5.83;;
20040;SDS011;10181;48.072;9.884;2023-01-19T15:31:06;5.37;;;4.97;;
20040;SDS011;10181;48.072;9.884;2023-01-19T15:33:33;7.10;;;6.50;;
20040;SDS011;10181;48.072;9.884;2023-01-19T15:35:59;8.50;;;7.90;;
20040;SDS011;10181;48.072;9.884;2023-01-19T15:38:25;7.27;;;6.87;;
20040;SDS011;10181;48.072;9.884;2023-01-19T15:40:51;7.10;;;6.60;;
20040;SDS011;10181;48.072;9.884;2023-01-19T15:43:17;7.20;;;6.80;;
20040;SDS011;10181;48.072;9.884;2023-01-19T15:45:55;7.13;;;6.57;;
20040;SDS011;10181;48.072;9.884;2023-01-19T15:48:25;6.07;;;5.57;;
20040;SDS011;10181;48.072;9.884;2023-01-19T15:50:51;5.23;;;4.77;;
20040;SDS011;10181;48.072;9.884;2023-01-19T15:53:17;8.63;;;7.93;;
20040;SDS011;10181;48.072;9.884;2023-01-19T15:55:47;11.57;;;10.67;;
20040;SDS011;10181;48.072;9.884;2023-01-19T15:58:13;28.77;;;27.37;;
20040;SDS011;10181;48.072;9.884;2023-01-19T16:00:39;36.60;;;35.00;;
20040;SDS011;10181;48.072;9.884;2023-01-19T16:03:05;42.63;;;40.73;;
20040;SDS011;10181;48.072;9.884;2023-01-19T16:05:31;44.33;;;42.23;;